createdAt,value
2022-11-15T00:02:23.673Z,30.40
2022-11-15T00:05:10.219Z,34.83
2022-11-15T00:07:58.297Z,33.85
2022-11-15T00:10:54.656Z,32.78
2022-11-15T00:13:41.688Z,34.70
2022-11-15T00:16:27.971Z,31.17
2022-11-15T00:19:14.743Z,32.80
2022-11-15T00:22:01.444Z,32.20
2022-11-15T00:24:48.001Z,34.08
2022-11-15T00:27:34.271Z,30.52
2022-11-15T00:30:20.793Z,35.40
2022-11-15T00:33:08.151Z,33.22
2022-11-15T00:35:54.516Z,30.23
2022-11-15T00:38:41.881Z,30.83
2022-11-15T00:41:28.430Z,31.02
2022-11-15T00:44:14.678Z,28.67
2022-11-15T00:47:00.859Z,34.55
2022-11-15T00:49:47.356Z,33.22
2022-11-15T00:52:33.624Z,29.40
2022-11-15T00:55:21.122Z,31.73
2022-11-15T00:58:07.302Z,30.27
2022-11-15T01:00:53.681Z,31.15
2022-11-15T01:03:41.447Z,32.63
2022-11-15T01:06:27.878Z,26.02
2022-11-15T01:09:14.881Z,24.10
2022-11-15T01:12:01.327Z,27.40
2022-11-15T01:14:47.689Z,26.00
2022-11-15T01:17:34.173Z,29.25
2022-11-15T01:20:20.294Z,28.92
2022-11-15T01:23:06.816Z,26.67
2022-11-15T01:25:53.402Z,30.70
2022-11-15T01:28:41.863Z,25.63
2022-11-15T01:31:28.311Z,29.50
2022-11-15T01:34:16.284Z,26.55
2022-11-15T01:37:02.659Z,23.63
2022-11-15T01:39:48.973Z,24.67
2022-11-15T01:42:35.012Z,21.50
2022-11-15T01:45:21.524Z,24.80
2022-11-15T01:48:11.673Z,21.38
2022-11-15T01:50:59.317Z,23.05
2022-11-15T01:53:51.336Z,26.65
2022-11-15T01:56:44.266Z,29.27
2022-11-15T01:59:31.304Z,24.60
2022-11-15T02:02:17.843Z,22.05
2022-11-15T02:05:05.345Z,22.20
2022-11-15T02:07:52.899Z,22.13
2022-11-15T02:10:39.424Z,23.20
2022-11-15T02:13:25.777Z,22.80
2022-11-15T02:16:34.650Z,21.08
2022-11-15T02:19:32.748Z,25.48
2022-11-15T02:22:37.098Z,24.05
2022-11-15T02:26:00.549Z,27.38
2022-11-15T02:29:04.437Z,24.77
2022-11-15T02:32:16.708Z,26.13
2022-11-15T02:35:12.307Z,23.65
2022-11-15T02:38:03.455Z,25.98
2022-11-15T02:41:05.094Z,26.98
2022-11-15T02:44:09.431Z,25.45
2022-11-15T02:47:15.307Z,27.15
2022-11-15T02:50:10.131Z,23.40
2022-11-15T02:52:57.120Z,25.13
2022-11-15T02:55:48.445Z,22.85
2022-11-15T02:58:55.008Z,21.30
2022-11-15T03:02:20.081Z,23.25
2022-11-15T03:05:38.501Z,22.73
2022-11-15T03:08:34.341Z,25.15
2022-11-15T03:11:23.215Z,23.33
2022-11-15T03:14:36.374Z,25.17
2022-11-15T03:17:29.771Z,22.77
2022-11-15T03:20:19.597Z,23.75
2022-11-15T03:23:10.275Z,22.88
2022-11-15T03:25:59.323Z,19.85
2022-11-15T03:28:54.378Z,23.30
2022-11-15T03:34:56.150Z,26.33
2022-11-15T03:37:50.405Z,22.92
2022-11-15T03:41:01.014Z,23.48
2022-11-15T03:43:57.022Z,24.98
2022-11-15T03:46:55.468Z,21.88
2022-11-15T03:49:58.502Z,24.80
2022-11-15T03:52:47.854Z,20.65
2022-11-15T03:55:34.442Z,21.23
2022-11-15T03:58:21.135Z,22.65
2022-11-15T04:01:07.592Z,21.63
2022-11-15T04:03:54.282Z,22.55
2022-11-15T04:06:40.829Z,24.20
2022-11-15T04:09:27.328Z,19.13
2022-11-15T04:12:13.610Z,22.27
2022-11-15T04:15:08.479Z,20.30
2022-11-15T04:17:56.983Z,21.02
2022-11-15T04:21:02.079Z,22.33
2022-11-15T04:24:07.081Z,20.27
2022-11-15T04:26:53.697Z,20.85
2022-11-15T04:29:40.361Z,23.92
2022-11-15T04:32:26.871Z,23.58
2022-11-15T04:35:13.578Z,21.25
2022-11-15T04:38:00.294Z,23.42
2022-11-15T04:40:47.707Z,23.60
2022-11-15T04:43:34.399Z,20.33
2022-11-15T04:46:20.844Z,19.05
2022-11-15T04:49:07.591Z,24.40
2022-11-15T04:51:53.960Z,26.00
2022-11-15T04:54:40.532Z,19.45
2022-11-15T04:57:27.105Z,20.77
2022-11-15T05:00:17.087Z,23.33
2022-11-15T05:03:22.169Z,23.02
2022-11-15T05:06:08.889Z,19.88
2022-11-15T05:08:56.543Z,19.08
2022-11-15T05:11:43.679Z,24.27
2022-11-15T05:14:30.380Z,22.27
2022-11-15T05:17:16.709Z,20.92
2022-11-15T05:20:03.227Z,22.02
2022-11-15T05:22:49.575Z,25.35
2022-11-15T05:25:38.141Z,22.10
2022-11-15T05:28:24.365Z,27.08
2022-11-15T05:31:13.299Z,22.77
2022-11-15T05:34:02.024Z,22.25
2022-11-15T05:36:48.485Z,25.10
2022-11-15T05:39:34.922Z,20.77
2022-11-15T05:42:21.132Z,23.50
2022-11-15T05:45:09.175Z,26.35
2022-11-15T05:47:58.725Z,23.23
2022-11-15T05:50:48.283Z,24.20
2022-11-15T05:53:37.600Z,30.70
2022-11-15T05:56:24.347Z,31.67
2022-11-15T05:59:12.464Z,25.23
2022-11-15T06:01:59.165Z,21.05
2022-11-15T06:04:45.441Z,21.42
2022-11-15T06:07:31.861Z,19.58
2022-11-15T06:10:18.400Z,19.10
2022-11-15T06:13:05.936Z,23.27
2022-11-15T06:15:52.448Z,22.00
2022-11-15T06:18:39.401Z,21.23
2022-11-15T06:21:25.681Z,20.40
2022-11-15T06:24:11.945Z,19.77
2022-11-15T06:27:00.241Z,24.17
2022-11-15T06:29:46.667Z,20.13
2022-11-15T06:32:33.382Z,21.15
2022-11-15T06:35:20.979Z,21.40
2022-11-15T06:38:10.255Z,19.55
2022-11-15T06:41:01.865Z,20.88
2022-11-15T06:43:48.252Z,22.17
2022-11-15T06:46:34.465Z,17.98
2022-11-15T06:49:20.947Z,26.77
2022-11-15T06:52:07.263Z,19.40
2022-11-15T06:54:53.781Z,22.67
2022-11-15T06:57:48.268Z,17.00
2022-11-15T07:00:34.721Z,18.52
2022-11-15T07:03:21.109Z,22.73
2022-11-15T07:06:08.333Z,23.10
2022-11-15T07:08:54.428Z,26.70
2022-11-15T07:11:41.192Z,27.77
2022-11-15T07:14:27.534Z,31.40
2022-11-15T07:17:13.899Z,32.60
2022-11-15T07:20:00.294Z,30.13
2022-11-15T07:22:46.687Z,30.70
2022-11-15T07:25:32.994Z,26.45
2022-11-15T07:28:19.295Z,28.35
2022-11-15T07:31:07.895Z,25.42
2022-11-15T07:33:54.356Z,31.20
2022-11-15T07:36:41.066Z,29.67
2022-11-15T07:39:27.162Z,26.35
2022-11-15T07:42:31.734Z,28.25
2022-11-15T07:45:17.677Z,34.50
2022-11-15T07:48:04.403Z,35.13
2022-11-15T07:50:51.912Z,30.60
2022-11-15T07:53:37.851Z,28.85
2022-11-15T07:56:24.159Z,31.02
2022-11-15T07:59:10.126Z,31.83
2022-11-15T08:01:56.663Z,29.30
2022-11-15T08:04:43.006Z,24.70
2022-11-15T08:07:32.437Z,27.60
2022-11-15T08:10:20.203Z,22.15
2022-11-15T08:13:08.883Z,23.88
2022-11-15T08:16:02.085Z,22.98
2022-11-15T08:18:48.718Z,23.00
2022-11-15T08:21:36.300Z,22.02
2022-11-15T08:24:22.663Z,24.85
2022-11-15T08:27:16.087Z,26.10
2022-11-15T08:30:02.857Z,28.23
2022-11-15T08:32:50.343Z,28.42
2022-11-15T08:35:36.704Z,30.65
2022-11-15T08:38:23.124Z,27.23
2022-11-15T08:41:26.294Z,27.48
2022-11-15T08:44:12.367Z,24.45
2022-11-15T08:46:58.522Z,26.70
2022-11-15T08:49:45.096Z,26.65
2022-11-15T08:52:31.719Z,23.95
2022-11-15T08:55:17.958Z,26.67
2022-11-15T08:58:04.472Z,19.10
2022-11-15T09:00:51.019Z,25.85
2022-11-15T09:03:37.170Z,19.08
2022-11-15T09:06:23.389Z,18.98
2022-11-15T09:09:09.946Z,19.90
2022-11-15T09:12:01.152Z,20.75
2022-11-15T09:14:48.825Z,21.65
2022-11-15T09:17:35.064Z,23.08
2022-11-15T09:20:21.557Z,26.33
2022-11-15T09:23:08.060Z,21.35
2022-11-15T09:26:03.968Z,23.90
2022-11-15T09:28:50.221Z,19.55
2022-11-15T09:31:36.473Z,21.33
2022-11-15T09:34:22.660Z,21.75
2022-11-15T09:37:09.095Z,26.60
2022-11-15T09:39:55.194Z,23.55
2022-11-15T09:42:46.987Z,24.73
2022-11-15T09:45:47.440Z,21.95
2022-11-15T09:48:38.481Z,20.83
2022-11-15T09:51:35.476Z,20.35
2022-11-15T09:54:51.525Z,21.05
2022-11-15T09:57:19.710Z,22.60
2022-11-15T10:00:45.491Z,25.98
2022-11-15T10:03:15.238Z,19.10
2022-11-15T10:05:48.951Z,20.50
2022-11-15T10:08:22.560Z,21.88
2022-11-15T10:11:22.855Z,21.70
2022-11-15T10:13:49.026Z,21.95
2022-11-15T10:16:47.833Z,25.33
2022-11-15T10:19:27.414Z,27.27
2022-11-15T10:22:16.212Z,23.70
2022-11-15T10:24:46.062Z,24.80
2022-11-15T10:27:16.880Z,25.20
2022-11-15T10:29:47.198Z,25.65
2022-11-15T10:32:16.518Z,27.90
2022-11-15T10:34:46.295Z,27.10
2022-11-15T10:37:14.087Z,22.77
2022-11-15T10:39:41.840Z,21.90
2022-11-15T10:42:27.881Z,27.05
2022-11-15T10:44:56.013Z,21.25
2022-11-15T10:47:26.511Z,24.23
2022-11-15T10:49:59.421Z,23.25
2022-11-15T10:52:27.981Z,26.13
2022-11-15T10:55:13.075Z,23.48
2022-11-15T10:57:41.085Z,22.77
2022-11-15T11:00:33.361Z,29.38
2022-11-15T11:03:04.363Z,23.13
2022-11-15T11:05:42.113Z,22.48
2022-11-15T11:08:17.028Z,24.35
2022-11-15T11:16:15.413Z,19.35
2022-11-15T11:18:59.387Z,29.50
2022-11-15T11:21:47.638Z,24.63
2022-11-15T11:24:30.043Z,24.50
2022-11-15T11:27:31.533Z,26.90
2022-11-15T11:30:35.214Z,24.23
2022-11-15T11:33:14.006Z,22.90
2022-11-15T11:35:57.195Z,19.85
2022-11-15T11:38:49.116Z,24.25
2022-11-15T11:41:40.088Z,21.70
2022-11-15T11:44:23.294Z,21.90
2022-11-15T11:46:59.299Z,24.83
2022-11-15T11:49:35.141Z,20.90
2022-11-15T11:52:17.097Z,19.88
2022-11-15T11:54:55.568Z,23.25
2022-11-15T11:57:49.982Z,21.73
2022-11-15T12:00:28.676Z,22.33
2022-11-15T12:03:06.816Z,23.58
2022-11-15T12:05:52.953Z,24.02
2022-11-15T12:08:34.406Z,22.77
2022-11-15T12:11:18.456Z,18.83
2022-11-15T12:13:50.781Z,22.90
2022-11-15T12:16:24.055Z,20.73
2022-11-15T12:18:55.014Z,19.40
2022-11-15T12:21:28.929Z,17.77
2022-11-15T12:24:21.977Z,18.45
2022-11-15T12:26:59.483Z,22.13
2022-11-15T12:29:40.276Z,20.23
2022-11-15T12:32:24.672Z,21.10
2022-11-15T12:34:54.560Z,21.67
2022-11-15T12:37:44.340Z,18.20
2022-11-15T12:40:24.922Z,19.25
2022-11-15T12:43:15.648Z,16.15
2022-11-15T12:45:46.006Z,22.00
2022-11-15T12:48:19.929Z,18.27
2022-11-15T12:50:56.330Z,20.08
2022-11-15T12:53:24.126Z,17.50
2022-11-15T12:56:13.806Z,19.40
2022-11-15T12:59:00.903Z,18.85
2022-11-15T13:01:31.964Z,18.75
2022-11-15T13:04:10.062Z,18.40
2022-11-15T13:06:46.747Z,19.63
2022-11-15T13:09:46.708Z,19.65
2022-11-15T13:12:36.882Z,21.92
2022-11-15T13:15:13.482Z,18.10
2022-11-15T13:17:50.966Z,17.15
2022-11-15T13:20:21.063Z,18.55
2022-11-15T13:23:00.435Z,16.48
2022-11-15T13:25:37.373Z,16.45
2022-11-15T13:28:11.177Z,19.13
2022-11-15T13:30:41.251Z,20.52
2022-11-15T13:33:18.365Z,20.83
2022-11-15T13:35:56.573Z,16.65
2022-11-15T13:38:30.422Z,19.45
2022-11-15T13:43:32.744Z,18.23
2022-11-15T13:46:22.990Z,19.47
2022-11-15T13:48:58.447Z,17.67
2022-11-15T13:51:56.029Z,20.77
2022-11-15T13:54:36.046Z,16.92
2022-11-15T13:57:22.324Z,17.98
2022-11-15T13:59:57.112Z,19.55
2022-11-15T14:02:34.128Z,18.17
2022-11-15T14:05:17.789Z,18.13
2022-11-15T14:07:55.596Z,23.92
2022-11-15T14:10:41.724Z,20.08
2022-11-15T14:13:30.993Z,18.13
2022-11-15T14:16:16.470Z,21.60
2022-11-15T14:18:52.335Z,18.45
2022-11-15T14:21:21.511Z,20.10
2022-11-15T14:23:50.217Z,18.77
2022-11-15T14:26:36.836Z,18.15
2022-11-15T14:29:27.342Z,19.83
2022-11-15T14:32:13.081Z,18.42
2022-11-15T14:34:40.873Z,19.30
2022-11-15T14:37:35.153Z,17.83
2022-11-15T14:40:06.192Z,18.90
2022-11-15T14:42:34.148Z,18.02
2022-11-15T14:45:01.996Z,18.98
2022-11-15T14:47:29.747Z,21.30
2022-11-15T14:49:57.542Z,19.20
2022-11-15T14:52:36.666Z,16.42
2022-11-15T14:55:14.029Z,17.30
2022-11-15T14:57:41.885Z,13.73
2022-11-15T15:00:11.157Z,18.13
2022-11-15T15:02:43.448Z,13.98
2022-11-15T15:05:24.733Z,16.20
2022-11-15T15:07:54.256Z,13.98
2022-11-15T15:10:40.551Z,13.52
2022-11-15T15:13:17.785Z,13.68
2022-11-15T15:15:45.622Z,15.90
2022-11-15T15:18:13.401Z,13.73
2022-11-15T15:20:43.011Z,13.63
2022-11-15T15:23:18.823Z,12.57
2022-11-15T15:25:49.849Z,15.13
2022-11-15T15:28:18.097Z,16.15
2022-11-15T15:30:45.933Z,16.10
2022-11-15T15:33:13.700Z,15.55
2022-11-15T15:35:44.547Z,13.80
2022-11-15T15:38:13.405Z,17.95
2022-11-15T15:40:41.511Z,16.25
2022-11-15T15:43:10.396Z,14.50
2022-11-15T15:45:41.017Z,16.33
2022-11-15T15:48:16.777Z,13.90
2022-11-15T15:50:46.253Z,15.05
2022-11-15T15:53:14.673Z,18.83
2022-11-15T15:55:42.359Z,14.82
2022-11-15T15:58:10.371Z,15.85
2022-11-15T16:00:38.508Z,15.00
2022-11-15T16:03:06.378Z,16.55
2022-11-15T16:05:34.262Z,14.88
2022-11-15T16:08:02.185Z,14.38
2022-11-15T16:10:34.808Z,14.93
2022-11-15T16:13:02.608Z,15.90
2022-11-15T16:15:32.551Z,16.25
2022-11-15T16:18:02.037Z,16.88
2022-11-15T16:20:32.336Z,15.35
2022-11-15T16:23:05.733Z,15.50
2022-11-15T16:25:56.937Z,19.08
2022-11-15T16:28:27.942Z,18.58
2022-11-15T16:31:09.126Z,21.13
2022-11-15T16:33:37.659Z,20.17
2022-11-15T16:36:07.405Z,17.80
2022-11-15T16:38:36.877Z,17.92
2022-11-15T16:41:04.934Z,16.00
2022-11-15T16:43:33.012Z,20.48
2022-11-15T16:46:13.470Z,26.17
2022-11-15T16:48:41.552Z,38.05
2022-11-15T16:51:09.388Z,23.80
2022-11-15T16:53:38.409Z,22.73
2022-11-15T16:56:29.241Z,24.55
2022-11-15T16:58:59.642Z,21.25
2022-11-15T17:01:35.673Z,22.00
2022-11-15T17:04:13.830Z,23.77
2022-11-15T17:06:43.493Z,22.05
2022-11-15T17:09:17.297Z,24.05
2022-11-15T17:11:45.689Z,29.02
2022-11-15T17:14:13.929Z,24.52
2022-11-15T17:16:44.785Z,22.45
2022-11-15T17:19:17.627Z,23.75
2022-11-15T17:21:46.106Z,23.17
2022-11-15T17:24:14.812Z,24.13
2022-11-15T17:26:44.025Z,24.38
2022-11-15T17:29:14.035Z,25.67
2022-11-15T17:31:41.942Z,27.73
2022-11-15T17:34:09.891Z,22.40
2022-11-15T17:36:38.338Z,24.27
2022-11-15T17:39:06.174Z,21.27
2022-11-15T17:41:34.059Z,31.00
2022-11-15T17:44:03.617Z,23.90
2022-11-15T17:46:34.314Z,25.92
2022-11-15T17:49:02.677Z,26.25
2022-11-15T17:51:30.624Z,29.30
2022-11-15T17:53:58.759Z,25.85
2022-11-15T17:56:38.854Z,23.83
2022-11-15T17:59:12.886Z,25.08
2022-11-15T18:01:46.109Z,29.40
2022-11-15T18:04:16.106Z,23.52
2022-11-15T18:06:44.465Z,26.98
2022-11-15T18:09:13.153Z,24.95
2022-11-15T18:11:42.426Z,28.60
2022-11-15T18:14:14.986Z,26.27
2022-11-15T18:16:43.062Z,29.58
2022-11-15T18:19:14.269Z,30.02
2022-11-15T18:21:59.339Z,28.60
2022-11-15T18:24:31.712Z,29.90
2022-11-15T18:27:01.220Z,33.88
2022-11-15T18:29:29.414Z,32.53
2022-11-15T18:31:57.642Z,33.78
2022-11-15T18:34:28.914Z,32.78
2022-11-15T18:36:56.796Z,36.75
2022-11-15T18:39:24.557Z,34.97
2022-11-15T18:41:52.492Z,31.00
2022-11-15T18:44:20.289Z,32.58
2022-11-15T18:46:48.136Z,33.53
2022-11-15T18:49:20.470Z,29.40
2022-11-15T18:51:49.009Z,27.27
2022-11-15T18:54:18.408Z,30.75
2022-11-15T18:56:47.093Z,33.10
2022-11-15T18:59:17.870Z,27.92
2022-11-15T19:01:48.513Z,26.95
2022-11-15T19:04:19.642Z,30.98
2022-11-15T19:06:50.092Z,27.55
2022-11-15T19:09:20.044Z,32.60
2022-11-15T19:11:51.776Z,29.60
2022-11-15T19:14:24.298Z,32.05
2022-11-15T19:16:53.116Z,27.65
2022-11-15T19:19:24.588Z,34.78
2022-11-15T19:21:53.643Z,31.40
2022-11-15T19:24:21.696Z,27.77
2022-11-15T19:26:49.980Z,28.58
2022-11-15T19:29:18.472Z,36.30
2022-11-15T19:31:48.679Z,30.30
2022-11-15T19:34:18.124Z,31.25
2022-11-15T19:36:47.639Z,33.60
2022-11-15T19:39:18.212Z,30.58
2022-11-15T19:41:46.630Z,36.92
2022-11-15T19:44:15.284Z,30.13
2022-11-15T19:46:44.498Z,32.88
2022-11-15T19:49:12.610Z,34.13
2022-11-15T19:51:42.824Z,30.27
2022-11-15T19:54:13.800Z,32.03
2022-11-15T19:56:41.815Z,34.90
2022-11-15T19:59:12.033Z,30.77
2022-11-15T20:01:40.062Z,29.25
2022-11-15T20:04:10.206Z,28.85
2022-11-15T20:06:42.002Z,33.83
2022-11-15T20:13:38.620Z,32.33
2022-11-15T20:16:09.638Z,27.25
2022-11-15T20:18:37.422Z,24.85
2022-11-15T20:21:06.458Z,35.25
2022-11-15T20:23:34.175Z,51.83
2022-11-15T20:26:02.003Z,61.88
2022-11-15T20:28:29.831Z,52.60
2022-11-15T20:31:00.390Z,51.67
2022-11-15T20:33:28.835Z,44.83
2022-11-15T20:35:57.463Z,47.25
2022-11-15T20:38:28.411Z,37.22
2022-11-15T20:41:00.031Z,29.80
2022-11-15T20:43:28.064Z,32.05
2022-11-15T20:45:56.249Z,26.27
2022-11-15T20:48:23.890Z,22.67
2022-11-15T20:50:51.779Z,24.05
2022-11-15T20:53:20.634Z,24.73
2022-11-15T20:55:51.133Z,21.52
2022-11-15T20:58:20.362Z,25.75
2022-11-15T21:00:48.560Z,22.60
2022-11-15T21:03:16.526Z,21.25
2022-11-15T21:05:45.158Z,22.52
2022-11-15T21:08:13.497Z,17.60
2022-11-15T21:11:00.492Z,22.80
2022-11-15T21:13:28.626Z,19.20
2022-11-15T21:16:00.446Z,21.60
2022-11-15T21:18:28.145Z,21.55
2022-11-15T21:20:55.793Z,18.25
2022-11-15T21:23:23.661Z,17.67
2022-11-15T21:25:52.640Z,17.05
2022-11-15T21:28:20.268Z,19.27
2022-11-15T21:30:59.960Z,19.73
2022-11-15T21:33:28.306Z,19.17
2022-11-15T21:36:00.402Z,19.20
2022-11-15T21:38:31.466Z,17.10
2022-11-15T21:41:03.860Z,17.85
2022-11-15T21:43:34.559Z,19.70
2022-11-15T21:46:06.913Z,18.92
2022-11-15T21:48:36.457Z,18.00
2022-11-15T21:51:07.250Z,21.42
2022-11-15T21:53:37.921Z,18.48
2022-11-15T21:56:06.878Z,19.10
2022-11-15T21:58:35.673Z,20.55
2022-11-15T22:01:22.828Z,18.02
2022-11-15T22:03:51.823Z,19.25
2022-11-15T22:06:21.003Z,19.13
2022-11-15T22:08:48.783Z,16.80
2022-11-15T22:11:16.668Z,21.02
2022-11-15T22:13:44.300Z,18.17
2022-11-15T22:16:12.275Z,20.17
2022-11-15T22:18:42.686Z,18.02
2022-11-15T22:21:16.050Z,23.30
2022-11-15T22:23:44.724Z,19.23
2022-11-15T22:26:19.410Z,20.33
2022-11-15T22:28:49.842Z,20.30
2022-11-15T22:31:17.644Z,18.38
2022-11-15T22:33:45.331Z,20.05
2022-11-15T22:36:13.371Z,17.50
2022-11-15T22:38:41.050Z,20.90
2022-11-15T22:41:08.881Z,18.65
2022-11-15T22:43:36.660Z,18.40
2022-11-15T22:46:05.614Z,17.30
2022-11-15T22:48:37.997Z,17.95
2022-11-15T22:51:07.374Z,19.60
2022-11-15T22:53:35.282Z,18.63
2022-11-15T22:56:05.004Z,14.07
2022-11-15T22:58:34.121Z,14.18
2022-11-15T23:01:04.458Z,15.65
2022-11-15T23:03:33.689Z,15.88
2022-11-15T23:06:07.804Z,13.48
2022-11-15T23:08:36.118Z,17.25
2022-11-15T23:11:23.384Z,13.93
2022-11-15T23:13:55.672Z,15.45
2022-11-15T23:16:23.677Z,13.95
2022-11-15T23:18:59.554Z,17.98
2022-11-15T23:21:49.900Z,18.13
2022-11-15T23:24:22.165Z,15.38
2022-11-15T23:26:52.159Z,16.08
2022-11-15T23:29:21.999Z,15.52
2022-11-15T23:32:08.523Z,15.43
2022-11-15T23:34:42.577Z,13.63
2022-11-15T23:37:13.048Z,17.00
2022-11-15T23:39:40.830Z,13.05
2022-11-15T23:42:19.819Z,16.42
2022-11-15T23:44:50.719Z,16.42
2022-11-15T23:47:19.492Z,14.25
2022-11-15T23:49:47.378Z,17.55
2022-11-15T23:52:16.037Z,16.95
2022-11-15T23:54:44.746Z,16.48
2022-11-15T23:57:12.601Z,15.30
2022-11-15T23:59:45.535Z,15.00
